Nordic Star — WDC6442 — position and weather

sailwx.info

Track history (hours):
 
Tides and Currents Weather Stations Pressure Air Temp Water Temp Dewpoint Dewpoint Depression Visibility Wind Speed Wind Dir Waves Ship Positions

Nordic Star

Owner: F/V Nordic Star LLC, SEATTLE, WA. More information available from US FCC via Universal Licensing System and Coast Guard Vessel Documentation Center.

Last reported at 2018-Jun-25 03:04 UTC. Time now 2018-Jun-25 11:26 UTC.
Position N 46°49' W 125°26'.

Length 33 m; draft 3.4 m.

Type: Fishing. MMSI: 367056452.

Date/timePositionNaut miles runAvg speedWind from/ knotsBaromVisibWave heightAir tempDewpointWater temp
2018-Jun-25 03:04N 46°49' W 125°26'110.3
2018-Jun-25 02:59N 46°48' W 125°25'610.3
2018-Jun-25 02:22N 46°45' W 125°17'410.2
2018-Jun-25 01:59N 46°43' W 125°12'710.0
2018-Jun-25 01:17N 46°39' W 125°03'310.0
2018-Jun-25 00:57N 46°38' W 124°59'4 9.9
2018-Jun-25 00:30N 46°35' W 124°54'510.0
2018-Jun-25 00:00N 46°32' W 124°48'5 9.9
2018-Jun-24 23:30N 46°30' W 124°42'5 9.8
2018-Jun-24 23:00N 46°27' W 124°36'5 9.5
2018-Jun-24 22:30N 46°25' W 124°30'5 9.6
2018-Jun-24 21:59N 46°22' W 124°24'5 9.4
2018-Jun-24 21:30N 46°20' W 124°18'5 9.3
2018-Jun-24 21:00N 46°17' W 124°12'5 9.1
2018-Jun-24 20:31N 46°15' W 124°07'510.5
2018-Jun-24 20:00N 46°14' W 123°59'5 9.4
2018-Jun-24 19:30N 46°11' W 123°54'2 4.6
2018-Jun-24 19:00N 46°12' W 123°50'0 0.0
2018-Jun-24 18:31N 46°12' W 123°50'0 0.0
2018-Jun-24 18:01N 46°12' W 123°50'0 0.0
2018-Jun-24 17:30N 46°12' W 123°50'0 0.0
2018-Jun-24 17:00N 46°12' W 123°50'0 0.0
2018-Jun-24 16:30N 46°12' W 123°50'0 0.0
2018-Jun-24 16:01N 46°12' W 123°50'0 0.0
2018-Jun-24 15:30N 46°12' W 123°50'0 0.0
2018-Jun-24 15:00N 46°12' W 123°50'0 0.0
2018-Jun-24 14:30N 46°12' W 123°50'0 0.0
2018-Jun-24 14:01N 46°12' W 123°50'0 0.0
2018-Jun-24 13:30N 46°12' W 123°50'0 0.0
2018-Jun-24 13:00N 46°12' W 123°50'0 0.0
2018-Jun-24 12:30N 46°12' W 123°50'0 0.0
2018-Jun-24 12:01N 46°12' W 123°50'0 0.0
2018-Jun-24 11:30N 46°12' W 123°50'0 0.0
2018-Jun-24 11:01N 46°12' W 123°50'0 0.0
2018-Jun-24 10:30N 46°12' W 123°50'0 0.0
2018-Jun-24 10:00N 46°12' W 123°50'0 0.0
2018-Jun-24 09:30N 46°12' W 123°50'0 0.0
2018-Jun-24 09:00N 46°12' W 123°50'0 0.0
2018-Jun-24 08:30N 46°12' W 123°50'0 0.0
2018-Jun-24 08:00N 46°12' W 123°50'0 0.0
2018-Jun-24 07:31N 46°12' W 123°50'0 0.0
2018-Jun-24 06:42N 46°12' W 123°50'0 0.0
2018-Jun-24 06:30N 46°12' W 123°50'0 0.0
2018-Jun-24 06:01N 46°12' W 123°50'0 0.0
2018-Jun-24 05:27N 46°12' W 123°50'0 0.0
2018-Jun-24 05:00N 46°12' W 123°50'0 0.0
2018-Jun-24 04:29N 46°12' W 123°50'0 0.0
2018-Jun-24 04:00N 46°12' W 123°50'1 1.9
2018-Jun-24 03:30N 46°11' W 123°52'0 0.0
2018-Jun-24 03:01N 46°11' W 123°52'0 0.0
2018-Jun-24 02:14N 46°11' W 123°52'0 0.0
2018-Jun-24 02:01N 46°11' W 123°52'0 0.0
2018-Jun-24 01:12N 46°11' W 123°52'0 0.0
2018-Jun-24 01:01N 46°11' W 123°52'0 0.0
2018-Jun-24 00:30N 46°11' W 123°52'0 0.0
2018-Jun-24 00:00N 46°11' W 123°52'0 0.0
2018-Jun-23 23:30N 46°11' W 123°52'0 0.0
2018-Jun-23 22:49N 46°11' W 123°52'0 0.0
2018-Jun-23 22:30N 46°11' W 123°52'0 0.0
2018-Jun-23 22:01N 46°11' W 123°52'0 0.0
2018-Jun-23 21:30N 46°11' W 123°52'0 0.0
2018-Jun-23 21:00N 46°11' W 123°52'0 0.0
2018-Jun-23 20:31N 46°11' W 123°52'2 3.2
2018-Jun-23 20:01N 46°11' W 123°54'4 8.2
2018-Jun-23 19:30N 46°14' W 123°59'4 7.7
2018-Jun-23 19:00N 46°15' W 124°04'4 8.2
2018-Jun-23 18:31N 46°11' W 124°07'5 9.7
2018-Jun-23 18:00N 46°07' W 124°09'4 7.5
2018-Jun-23 17:31N 46°03' W 124°10'4 8.7
2018-Jun-23 17:00N 45°59' W 124°11'5 9.6
2018-Jun-23 16:30N 45°54' W 124°13'5 9.5
2018-Jun-23 16:00N 45°49' W 124°13'5 9.4
2018-Jun-23 15:31N 45°44' W 124°13'5 9.6
2018-Jun-23 15:01N 45°40' W 124°14'5 9.9
2018-Jun-23 14:30N 45°35' W 124°15'5 9.7
2018-Jun-23 14:01N 45°30' W 124°16'5 9.7
2018-Jun-23 13:30N 45°25' W 124°17'5 9.8
2018-Jun-23 13:00N 45°20' W 124°18'5 9.6
2018-Jun-23 12:30N 45°15' W 124°19'5 9.7
2018-Jun-23 12:01N 45°11' W 124°20'6 9.6
2018-Jun-23 11:21N 45°04' W 124°20'4 9.4
2018-Jun-23 10:58N 45°01' W 124°21'83 6.0
2018-Jun-22 21:03N 43°39' W 124°38'7 2.2
2018-Jun-22 17:58N 43°32' W 124°38'5 1.7
2018-Jun-22 15:08N 43°37' W 124°37'1 3.5
2018-Jun-22 14:55N 43°36' W 124°37'2 3.4
2018-Jun-22 14:21N 43°34' W 124°37'2 3.5
2018-Jun-22 13:40N 43°32' W 124°37'4 0.2
2018-Jun-21 21:05N 43°28' W 124°39'16 0.5
2018-Jun-20 13:12N 43°37' W 124°22'4 0.3
2018-Jun-19 22:06N 43°40' W 124°18'1 9.8
2018-Jun-19 22:00N 43°41' W 124°18'11 2.9
2018-Jun-19 18:17N 43°52' W 124°22'2 2.7
2018-Jun-19 17:43N 43°53' W 124°24'1 3.7
2018-Jun-19 17:26N 43°54' W 124°25'2 3.7
2018-Jun-19 17:00N 43°55' W 124°25'2 2.0
2018-Jun-19 16:07N 43°57' W 124°25'0 3.5
2018-Jun-19 16:00N 43°56' W 124°25'2 3.2
2018-Jun-19 15:15N 43°54' W 124°23'1 3.5
2018-Jun-19 15:01N 43°54' W 124°22'2 3.2
2018-Jun-19 14:22N 43°52' W 124°22'1 2.7
2018-Jun-19 14:00N 43°51' W 124°23'3 6.2
2018-Jun-19 13:30N 43°54' W 124°24'3 5.0
2018-Jun-19 13:00N 43°56' W 124°26'4 7.7
2018-Jun-19 12:30N 43°55' W 124°31'2 4.5
2018-Jun-19 12:00N 43°54' W 124°28'0 0.5
2018-Jun-19 11:27N 43°54' W 124°28'0 0.3
2018-Jun-19 11:00N 43°54' W 124°29'0 0.2
2018-Jun-19 10:26N 43°54' W 124°29'1 2.0
2018-Jun-19 09:53N 43°55' W 124°29'2 5.8
2018-Jun-19 09:30N 43°57' W 124°30'3 6.3
2018-Jun-19 09:00N 44°01' W 124°30'1 2.8
2018-Jun-19 08:30N 44°00' W 124°28'1 2.2
2018-Jun-19 08:00N 43°59' W 124°27'1 2.4
2018-Jun-19 07:30N 43°58' W 124°27'1 2.4
2018-Jun-19 06:59N 43°57' W 124°26'1 2.4
2018-Jun-19 06:30N 43°56' W 124°25'1 2.4
2018-Jun-19 06:00N 43°55' W 124°25'1 2.4
2018-Jun-19 05:30N 43°54' W 124°24'1 2.4
2018-Jun-19 05:00N 43°53' W 124°23'2 3.4
2018-Jun-19 04:17N 43°52' W 124°20'1 3.4
2018-Jun-19 03:58N 43°53' W 124°20'2 3.5
2018-Jun-19 03:29N 43°54' W 124°22'2 3.6
2018-Jun-19 03:00N 43°55' W 124°24'0 1.0
2018-Jun-19 02:30N 43°55' W 124°24'2 3.2
2018-Jun-19 01:57N 43°54' W 124°22'2 3.8
2018-Jun-19 01:30N 43°52' W 124°21'2 3.0
2018-Jun-19 00:58N 43°51' W 124°20'1 2.9
2018-Jun-19 00:30N 43°52' W 124°20'2 3.1
2018-Jun-18 23:48N 43°54' W 124°22'1 1.2
2018-Jun-18 22:58N 43°54' W 124°23'2 3.6
2018-Jun-18 22:26N 43°53' W 124°21'1 0.5
2018-Jun-18 20:15N 43°53' W 124°22'1 2.5
2018-Jun-18 19:57N 43°53' W 124°22'2 3.7
2018-Jun-18 19:30N 43°51' W 124°22'5 1.7
2018-Jun-18 16:47N 43°56' W 124°23'2 3.4
2018-Jun-18 16:20N 43°54' W 124°22'3 3.3
2018-Jun-18 15:28N 43°51' W 124°21'3 3.4
2018-Jun-18 14:42N 43°49' W 124°20'1 3.6
2018-Jun-18 14:24N 43°48' W 124°21'1 3.2
2018-Jun-18 14:00N 43°49' W 124°20'8 2.0
2018-Jun-18 09:52N 43°52' W 124°30'1 1.9
2018-Jun-18 09:06N 43°53' W 124°31'0 2.5
2018-Jun-18 09:00N 43°53' W 124°31'1 2.5
2018-Jun-18 08:26N 43°51' W 124°31'1 2.5
2018-Jun-18 08:00N 43°50' W 124°30'2 2.4
2018-Jun-18 07:23N 43°49' W 124°29'1 2.4
2018-Jun-18 06:59N 43°48' W 124°29'1 2.4
2018-Jun-18 06:29N 43°47' W 124°28'7 2.4
2018-Jun-18 03:37N 43°41' W 124°23'2 0.7
2018-Jun-18 00:50N 43°43' W 124°21'1 2.9
2018-Jun-18 00:30N 43°42' W 124°20'2 3.2
2018-Jun-17 23:57N 43°40' W 124°21'1 3.0
2018-Jun-17 23:30N 43°39' W 124°20'3 3.6
2018-Jun-17 22:37N 43°42' W 124°19'0 3.7
2018-Jun-17 22:30N 43°42' W 124°19'2 3.4
2018-Jun-17 22:00N 43°43' W 124°21'1 1.7
2018-Jun-17 21:14N 43°44' W 124°23'2 2.2
2018-Jun-17 20:23N 43°43' W 124°21'1 3.3
2018-Jun-17 20:00N 43°42' W 124°20'2 3.6
2018-Jun-17 19:30N 43°40' W 124°20'2 3.8
2018-Jun-17 19:00N 43°38' W 124°20'2 2.7
2018-Jun-17 18:07N 43°40' W 124°22'1 2.1
2018-Jun-17 17:29N 43°40' W 124°21'  
2018-Jun-15 13:08N 45°16' W 124°32'2 9.7
2018-Jun-15 12:55N 45°18' W 124°33'4 9.5
2018-Jun-15 12:30N 45°22' W 124°35'6 9.1
2018-Jun-15 11:49N 45°28' W 124°37'3 9.1
2018-Jun-15 11:30N 45°31' W 124°38'5 9.3
2018-Jun-15 11:01N 45°35' W 124°39'5 9.6
2018-Jun-15 10:30N 45°40' W 124°40'9 9.7
2018-Jun-15 09:37N 45°48' W 124°43'1 9.9
2018-Jun-15 09:30N 45°49' W 124°44'5 9.6
2018-Jun-15 09:00N 45°54' W 124°45'5 9.8
2018-Jun-15 08:30N 45°59' W 124°47'510.0
2018-Jun-15 08:00N 46°04' W 124°48'7 9.9
2018-Jun-15 07:19N 46°11' W 124°49'3 9.7
2018-Jun-15 06:59N 46°14' W 124°50'510.1
2018-Jun-15 06:30N 46°19' W 124°51'5 9.9
2018-Jun-15 06:01N 46°23' W 124°52'5 9.8
2018-Jun-15 05:30N 46°28' W 124°53'510.1
2018-Jun-15 05:00N 46°33' W 124°54'510.2
2018-Jun-15 04:30N 46°38' W 124°55'510.5
2018-Jun-15 04:00N 46°44' W 124°56'  
Track history (hours):
 
Tides and Currents Weather Stations Pressure Air Temp Water Temp Dewpoint Dewpoint Depression Visibility Wind Speed Wind Dir Waves Ship Positions

Nordic Star

Owner: F/V Nordic Star LLC, SEATTLE, WA. More information available from US FCC via Universal Licensing System and Coast Guard Vessel Documentation Center.

Last reported at 2018-Jun-25 03:04 UTC. Time now 2018-Jun-25 11:26 UTC.
Position N 46°49' W 125°26'.

Length 33 m; draft 3.4 m.

Type: Fishing. MMSI: 367056452.

Date/timePositionNaut miles runAvg speedWind from/ knotsBaromVisibWave heightAir tempDewpointWater temp
2018-Jun-25 03:04N 46°49' W 125°26'110.3
2018-Jun-25 02:59N 46°48' W 125°25'610.3
2018-Jun-25 02:22N 46°45' W 125°17'410.2
2018-Jun-25 01:59N 46°43' W 125°12'710.0
2018-Jun-25 01:17N 46°39' W 125°03'310.0
2018-Jun-25 00:57N 46°38' W 124°59'4 9.9
2018-Jun-25 00:30N 46°35' W 124°54'510.0
2018-Jun-25 00:00N 46°32' W 124°48'5 9.9
2018-Jun-24 23:30N 46°30' W 124°42'5 9.8
2018-Jun-24 23:00N 46°27' W 124°36'5 9.5
2018-Jun-24 22:30N 46°25' W 124°30'5 9.6
2018-Jun-24 21:59N 46°22' W 124°24'5 9.4
2018-Jun-24 21:30N 46°20' W 124°18'5 9.3
2018-Jun-24 21:00N 46°17' W 124°12'5 9.1
2018-Jun-24 20:31N 46°15' W 124°07'510.5
2018-Jun-24 20:00N 46°14' W 123°59'5 9.4
2018-Jun-24 19:30N 46°11' W 123°54'2 4.6
2018-Jun-24 19:00N 46°12' W 123°50'0 0.0
2018-Jun-24 18:31N 46°12' W 123°50'0 0.0
2018-Jun-24 18:01N 46°12' W 123°50'0 0.0
2018-Jun-24 17:30N 46°12' W 123°50'0 0.0
2018-Jun-24 17:00N 46°12' W 123°50'0 0.0
2018-Jun-24 16:30N 46°12' W 123°50'0 0.0
2018-Jun-24 16:01N 46°12' W 123°50'0 0.0
2018-Jun-24 15:30N 46°12' W 123°50'0 0.0
2018-Jun-24 15:00N 46°12' W 123°50'0 0.0
2018-Jun-24 14:30N 46°12' W 123°50'0 0.0
2018-Jun-24 14:01N 46°12' W 123°50'0 0.0
2018-Jun-24 13:30N 46°12' W 123°50'0 0.0
2018-Jun-24 13:00N 46°12' W 123°50'0 0.0
2018-Jun-24 12:30N 46°12' W 123°50'0 0.0
2018-Jun-24 12:01N 46°12' W 123°50'0 0.0
2018-Jun-24 11:30N 46°12' W 123°50'0 0.0
2018-Jun-24 11:01N 46°12' W 123°50'0 0.0
2018-Jun-24 10:30N 46°12' W 123°50'0 0.0
2018-Jun-24 10:00N 46°12' W 123°50'0 0.0
2018-Jun-24 09:30N 46°12' W 123°50'0 0.0
2018-Jun-24 09:00N 46°12' W 123°50'0 0.0
2018-Jun-24 08:30N 46°12' W 123°50'0 0.0
2018-Jun-24 08:00N 46°12' W 123°50'0 0.0
2018-Jun-24 07:31N 46°12' W 123°50'0 0.0
2018-Jun-24 06:42N 46°12' W 123°50'0 0.0
2018-Jun-24 06:30N 46°12' W 123°50'0 0.0
2018-Jun-24 06:01N 46°12' W 123°50'0 0.0
2018-Jun-24 05:27N 46°12' W 123°50'0 0.0
2018-Jun-24 05:00N 46°12' W 123°50'0 0.0
2018-Jun-24 04:29N 46°12' W 123°50'0 0.0
2018-Jun-24 04:00N 46°12' W 123°50'1 1.9
2018-Jun-24 03:30N 46°11' W 123°52'0 0.0
2018-Jun-24 03:01N 46°11' W 123°52'0 0.0
2018-Jun-24 02:14N 46°11' W 123°52'0 0.0
2018-Jun-24 02:01N 46°11' W 123°52'0 0.0
2018-Jun-24 01:12N 46°11' W 123°52'0 0.0
2018-Jun-24 01:01N 46°11' W 123°52'0 0.0
2018-Jun-24 00:30N 46°11' W 123°52'0 0.0
2018-Jun-24 00:00N 46°11' W 123°52'0 0.0
2018-Jun-23 23:30N 46°11' W 123°52'0 0.0
2018-Jun-23 22:49N 46°11' W 123°52'0 0.0
2018-Jun-23 22:30N 46°11' W 123°52'0 0.0
2018-Jun-23 22:01N 46°11' W 123°52'0 0.0
2018-Jun-23 21:30N 46°11' W 123°52'0 0.0
2018-Jun-23 21:00N 46°11' W 123°52'0 0.0
2018-Jun-23 20:31N 46°11' W 123°52'2 3.2
2018-Jun-23 20:01N 46°11' W 123°54'4 8.2
2018-Jun-23 19:30N 46°14' W 123°59'4 7.7
2018-Jun-23 19:00N 46°15' W 124°04'4 8.2
2018-Jun-23 18:31N 46°11' W 124°07'5 9.7
2018-Jun-23 18:00N 46°07' W 124°09'4 7.5
2018-Jun-23 17:31N 46°03' W 124°10'4 8.7
2018-Jun-23 17:00N 45°59' W 124°11'5 9.6
2018-Jun-23 16:30N 45°54' W 124°13'5 9.5
2018-Jun-23 16:00N 45°49' W 124°13'5 9.4
2018-Jun-23 15:31N 45°44' W 124°13'5 9.6
2018-Jun-23 15:01N 45°40' W 124°14'5 9.9
2018-Jun-23 14:30N 45°35' W 124°15'5 9.7
2018-Jun-23 14:01N 45°30' W 124°16'5 9.7
2018-Jun-23 13:30N 45°25' W 124°17'5 9.8
2018-Jun-23 13:00N 45°20' W 124°18'5 9.6
2018-Jun-23 12:30N 45°15' W 124°19'5 9.7
2018-Jun-23 12:01N 45°11' W 124°20'6 9.6
2018-Jun-23 11:21N 45°04' W 124°20'4 9.4
2018-Jun-23 10:58N 45°01' W 124°21'83 6.0
2018-Jun-22 21:03N 43°39' W 124°38'7 2.2
2018-Jun-22 17:58N 43°32' W 124°38'5 1.7
2018-Jun-22 15:08N 43°37' W 124°37'1 3.5
2018-Jun-22 14:55N 43°36' W 124°37'2 3.4
2018-Jun-22 14:21N 43°34' W 124°37'2 3.5
2018-Jun-22 13:40N 43°32' W 124°37'4 0.2
2018-Jun-21 21:05N 43°28' W 124°39'16 0.5
2018-Jun-20 13:12N 43°37' W 124°22'4 0.3
2018-Jun-19 22:06N 43°40' W 124°18'1 9.8
2018-Jun-19 22:00N 43°41' W 124°18'11 2.9
2018-Jun-19 18:17N 43°52' W 124°22'2 2.7
2018-Jun-19 17:43N 43°53' W 124°24'1 3.7
2018-Jun-19 17:26N 43°54' W 124°25'2 3.7
2018-Jun-19 17:00N 43°55' W 124°25'2 2.0
2018-Jun-19 16:07N 43°57' W 124°25'0 3.5
2018-Jun-19 16:00N 43°56' W 124°25'2 3.2
2018-Jun-19 15:15N 43°54' W 124°23'1 3.5
2018-Jun-19 15:01N 43°54' W 124°22'2 3.2
2018-Jun-19 14:22N 43°52' W 124°22'1 2.7
2018-Jun-19 14:00N 43°51' W 124°23'3 6.2
2018-Jun-19 13:30N 43°54' W 124°24'3 5.0
2018-Jun-19 13:00N 43°56' W 124°26'4 7.7
2018-Jun-19 12:30N 43°55' W 124°31'2 4.5
2018-Jun-19 12:00N 43°54' W 124°28'0 0.5
2018-Jun-19 11:27N 43°54' W 124°28'0 0.3
2018-Jun-19 11:00N 43°54' W 124°29'0 0.2
2018-Jun-19 10:26N 43°54' W 124°29'1 2.0
2018-Jun-19 09:53N 43°55' W 124°29'2 5.8
2018-Jun-19 09:30N 43°57' W 124°30'3 6.3
2018-Jun-19 09:00N 44°01' W 124°30'1 2.8
2018-Jun-19 08:30N 44°00' W 124°28'1 2.2
2018-Jun-19 08:00N 43°59' W 124°27'1 2.4
2018-Jun-19 07:30N 43°58' W 124°27'1 2.4
2018-Jun-19 06:59N 43°57' W 124°26'1 2.4
2018-Jun-19 06:30N 43°56' W 124°25'1 2.4
2018-Jun-19 06:00N 43°55' W 124°25'1 2.4
2018-Jun-19 05:30N 43°54' W 124°24'1 2.4
2018-Jun-19 05:00N 43°53' W 124°23'2 3.4
2018-Jun-19 04:17N 43°52' W 124°20'1 3.4
2018-Jun-19 03:58N 43°53' W 124°20'2 3.5
2018-Jun-19 03:29N 43°54' W 124°22'2 3.6
2018-Jun-19 03:00N 43°55' W 124°24'0 1.0
2018-Jun-19 02:30N 43°55' W 124°24'2 3.2
2018-Jun-19 01:57N 43°54' W 124°22'2 3.8
2018-Jun-19 01:30N 43°52' W 124°21'2 3.0
2018-Jun-19 00:58N 43°51' W 124°20'1 2.9
2018-Jun-19 00:30N 43°52' W 124°20'2 3.1
2018-Jun-18 23:48N 43°54' W 124°22'1 1.2
2018-Jun-18 22:58N 43°54' W 124°23'2 3.6
2018-Jun-18 22:26N 43°53' W 124°21'1 0.5
2018-Jun-18 20:15N 43°53' W 124°22'1 2.5
2018-Jun-18 19:57N 43°53' W 124°22'2 3.7
2018-Jun-18 19:30N 43°51' W 124°22'5 1.7
2018-Jun-18 16:47N 43°56' W 124°23'2 3.4
2018-Jun-18 16:20N 43°54' W 124°22'3 3.3
2018-Jun-18 15:28N 43°51' W 124°21'3 3.4
2018-Jun-18 14:42N 43°49' W 124°20'1 3.6
2018-Jun-18 14:24N 43°48' W 124°21'1 3.2
2018-Jun-18 14:00N 43°49' W 124°20'8 2.0
2018-Jun-18 09:52N 43°52' W 124°30'1 1.9
2018-Jun-18 09:06N 43°53' W 124°31'0 2.5
2018-Jun-18 09:00N 43°53' W 124°31'1 2.5
2018-Jun-18 08:26N 43°51' W 124°31'1 2.5
2018-Jun-18 08:00N 43°50' W 124°30'2 2.4
2018-Jun-18 07:23N 43°49' W 124°29'1 2.4
2018-Jun-18 06:59N 43°48' W 124°29'1 2.4
2018-Jun-18 06:29N 43°47' W 124°28'7 2.4
2018-Jun-18 03:37N 43°41' W 124°23'2 0.7
2018-Jun-18 00:50N 43°43' W 124°21'1 2.9
2018-Jun-18 00:30N 43°42' W 124°20'2 3.2
2018-Jun-17 23:57N 43°40' W 124°21'1 3.0
2018-Jun-17 23:30N 43°39' W 124°20'3 3.6
2018-Jun-17 22:37N 43°42' W 124°19'0 3.7
2018-Jun-17 22:30N 43°42' W 124°19'2 3.4
2018-Jun-17 22:00N 43°43' W 124°21'1 1.7
2018-Jun-17 21:14N 43°44' W 124°23'2 2.2
2018-Jun-17 20:23N 43°43' W 124°21'1 3.3
2018-Jun-17 20:00N 43°42' W 124°20'2 3.6
2018-Jun-17 19:30N 43°40' W 124°20'2 3.8
2018-Jun-17 19:00N 43°38' W 124°20'2 2.7
2018-Jun-17 18:07N 43°40' W 124°22'1 2.1
2018-Jun-17 17:29N 43°40' W 124°21'  
2018-Jun-15 13:08N 45°16' W 124°32'2 9.7
2018-Jun-15 12:55N 45°18' W 124°33'4 9.5
2018-Jun-15 12:30N 45°22' W 124°35'6 9.1
2018-Jun-15 11:49N 45°28' W 124°37'3 9.1
2018-Jun-15 11:30N 45°31' W 124°38'5 9.3
2018-Jun-15 11:01N 45°35' W 124°39'5 9.6
2018-Jun-15 10:30N 45°40' W 124°40'9 9.7
2018-Jun-15 09:37N 45°48' W 124°43'1 9.9
2018-Jun-15 09:30N 45°49' W 124°44'5 9.6
2018-Jun-15 09:00N 45°54' W 124°45'5 9.8
2018-Jun-15 08:30N 45°59' W 124°47'510.0
2018-Jun-15 08:00N 46°04' W 124°48'7 9.9
2018-Jun-15 07:19N 46°11' W 124°49'3 9.7
2018-Jun-15 06:59N 46°14' W 124°50'510.1
2018-Jun-15 06:30N 46°19' W 124°51'5 9.9
2018-Jun-15 06:01N 46°23' W 124°52'5 9.8
2018-Jun-15 05:30N 46°28' W 124°53'510.1
2018-Jun-15 05:00N 46°33' W 124°54'510.2
2018-Jun-15 04:30N 46°38' W 124°55'510.5
2018-Jun-15 04:00N 46°44' W 124°56'  

Dump ship's entire track history